• Join FlightAware (Why Join?)
  • Login
  • US Flag 
08:20PM EST


 

Airport Tracker/Info


-or-


 

Live Flight TrackerFlight Track Log ✈ FIN666 ✈ 01-Apr-2014 ✈ EKCH / CPH - EFHK / HEL

Flight Track Log - Related Links

Times and Time Zones

All times are in EDT time to prevent confusion due to time zone crossing. See the FIN666 flight status page for this flight to view local times or setup timezone preferences in your user account.

Time Position Orientation Groundspeed Altitude Reporting Facility
EDT Latitude Longitude Course Direction KTS MPH feet Rate Location/Type
07:26AM 55.8166 13.0661 49° Northeast  Level Estimated
07:27AM 55.8825 13.2038 49° Northeast  Level Estimated
07:28AM 55.9483 13.3419 50° Northeast  Level Estimated
07:29AM 56.0139 13.4805 50° Northeast  Level Estimated
07:30AM 56.0838 13.6289 50° Northeast  Level Estimated
07:31AM 56.1535 13.7779 50° Northeast  Level Estimated
07:32AM 56.2230 13.9275 50° Northeast  Level Estimated
07:33AM 56.2923 14.0776 50° Northeast  Level Estimated
07:34AM 56.3615 14.2282 50° Northeast  Level Estimated
07:35AM 56.4304 14.3794 50° Northeast  Level Estimated
07:36AM 56.4992 14.5311 51° Northeast  Level Estimated
07:37AM 56.5678 14.6834 51° Northeast  Level Estimated
07:38AM 56.6362 14.8363 51° Northeast  Level Estimated
07:39AM 56.7045 14.9896 51° Northeast  Level Estimated
07:40AM 56.7725 15.1436 51° Northeast  Level Estimated
07:41AM 56.8403 15.2981 51° Northeast  Level Estimated
07:42AM 56.9080 15.4531 51° Northeast  Level Estimated
07:43AM 56.9754 15.6088 51° Northeast  Level Estimated
07:44AM 57.0427 15.7650 52° Northeast  Level Estimated
07:45AM 57.1098 15.9217 52° Northeast  Level Estimated
07:46AM 57.1767 16.0790 52° Northeast  Level Estimated
07:47AM 57.2433 16.2369 52° Northeast  Level Estimated
07:48AM 57.3098 16.3954 52° Northeast  Level Estimated
07:49AM 57.3761 16.5544 52° Northeast  Level Estimated
07:50AM 57.4422 16.7141 52° Northeast  Level Estimated
07:51AM 57.5072 16.8721 53° Northeast  Level Estimated
07:52AM 57.5720 17.0307 53° Northeast  Level Estimated
07:53AM 57.6366 17.1899 53° Northeast  Level Estimated
07:54AM 57.7010 17.3496 53° Northeast  Level Estimated
07:55AM 57.7652 17.5099 53° Northeast  Level Estimated
07:56AM 57.8292 17.6708 53° Northeast  Level Estimated
07:57AM 57.8930 17.8323 53° Northeast  Level Estimated
07:58AM 57.9565 17.9943 53° Northeast  Level Estimated
07:59AM 58.0199 18.1569 54° Northeast  Level Estimated
08:00AM 58.0831 18.3201 54° Northeast  Level Estimated
08:01AM 58.1460 18.4838 54° Northeast  Level Estimated
08:02AM 58.2088 18.6482 54° Northeast  Level Estimated
08:03AM 58.2713 18.8131 54° Northeast  Level Estimated
08:04AM 58.3337 18.9786 54° Northeast  Level Estimated
08:05AM 58.3958 19.1447 54° Northeast  Level Estimated
08:06AM 58.4577 19.3113 55° Northeast  Level Estimated
08:07AM 58.5194 19.4786 55° Northeast  Level Estimated
08:08AM 58.5808 19.6464 55° Northeast  Level Estimated
08:09AM 58.6421 19.8149 55° Northeast  Level Estimated
08:10AM 58.7031 19.9839 55° Northeast  Level Estimated
08:11AM 58.7639 20.1535 55° Northeast  Level Estimated
08:12AM 58.8245 20.3237 55° Northeast  Level Estimated
08:13AM 58.8848 20.4945 56° Northeast  Level Estimated
08:14AM 58.9449 20.6659 56° Northeast  Level Estimated
08:15AM 59.0048 20.8379 56° Northeast  Level Estimated
08:16AM 59.0645 21.0105 56° Northeast  Level Estimated
08:17AM 59.1239 21.1837 56° Northeast  Level Estimated
08:18AM 59.1831 21.3575 56° Northeast  Level Estimated
08:19AM 59.2429 21.5342 56° Northeast  Level Estimated
08:20AM 59.3024 21.7116 57° Northeast  Level Estimated
08:21AM 59.3617 21.8896 57° Northeast  Level Estimated
08:22AM 59.4208 22.0682 57° Northeast  Level Estimated
08:23AM 59.4796 22.2475 57° Northeast  Level Estimated
08:24AM 59.5381 22.4273 57° Northeast  Level Estimated
08:25AM 59.5964 22.6078 57° Northeast  Level Estimated
08:26AM 59.6545 22.7889 58° Northeast  Level Estimated
08:27AM 59.7123 22.9707 58° Northeast  Level Estimated
08:28AM 59.7698 23.1530 58° Northeast  Level Estimated
08:29AM 59.8271 23.3361 58° Northeast  Level Estimated
08:30AM 59.8842 23.5197 58° Northeast  Level Estimated
08:31AM 59.9410 23.7039 58° Northeast  Level Estimated
08:32AM 59.9975 23.8888 58° Northeast  Level Estimated
08:33AM 60.0538 24.0743 59° Northeast  Level Estimated
08:34AM 60.1098 24.2605 59° Northeast  Level Estimated
08:35AM 60.1655 24.4473 59° Northeast  Level Estimated
08:36AM 60.2210 24.6347 59° Northeast  Level Estimated
08:37AM 60.2762 24.8228 59° Northeast  Level Estimated
08:38AM 60.3172 24.9633 59° Northeast  Level Estimated
08:39AM 60.3172 24.9633 North  Level Estimated
08:40AM 60.3172 24.9633 North  Level Estimated
08:41AM 60.3172 24.9633 North  Level Estimated
08:42AM 60.3172 24.9633 North  Level Estimated
08:43AM 60.3172 24.9633 North  Level Estimated
08:44AM 60.3172 24.9633 North  Level Estimated
08:45AM 60.3172 24.9633 North  Level Estimated
08:46AM 60.3172 24.9633 North  Level Estimated
08:47AM 60.3172 24.9633 North  Level Estimated
08:48AM 60.3172 24.9633 North  Level Estimated
08:49AM 60.3172 24.9633 North  Level Estimated